Terminal Aerodrome Forecast
Issued by NWS

Home | Current Version | Previous Version | Text Only | Print | Product List | Glossary On
Versions: 1 2 3 4 5 6 7 8 9 10 11 12 13 14
000
FTUS43 KAPX 122300
TAFAPN
TAF
KAPN 122320Z 1300/1324 16005KT 5SM -SHRA OVC040
     FM130400 VRB03KT 2SM SHRA OVC014
     FM130900 VRB03KT 1SM BR OVC004
     FM131400 27012G20KT P6SM SCT040=

USA.gov is the U.S. government's official web portal to all federal, state and local government web resources and services.